sensor_id;sensor_type;location;lat;lon;timestamp;P1;durP1;ratioP1;P2;durP2;ratioP2
40945;SDS011;55635;50.264;11.918;2022-09-09T00:05:19;4.28;;;1.90;;
40945;SDS011;55635;50.264;11.918;2022-09-09T00:08:07;7.57;;;2.15;;
40945;SDS011;55635;50.264;11.918;2022-09-09T00:11:03;5.13;;;2.40;;
40945;SDS011;55635;50.264;11.918;2022-09-09T00:13:49;5.53;;;2.65;;
40945;SDS011;55635;50.264;11.918;2022-09-09T00:16:37;2.85;;;1.92;;
40945;SDS011;55635;50.264;11.918;2022-09-09T00:19:32;3.47;;;1.87;;
40945;SDS011;55635;50.264;11.918;2022-09-09T00:22:47;8.70;;;2.42;;
40945;SDS011;55635;50.264;11.918;2022-09-09T00:26:08;3.30;;;1.90;;
40945;SDS011;55635;50.264;11.918;2022-09-09T00:31:54;3.42;;;1.75;;
40945;SDS011;55635;50.264;11.918;2022-09-09T00:34:52;2.13;;;1.40;;
40945;SDS011;55635;50.264;11.918;2022-09-09T00:37:42;2.45;;;1.48;;
40945;SDS011;55635;50.264;11.918;2022-09-09T00:49:49;4.03;;;1.70;;
40945;SDS011;55635;50.264;11.918;2022-09-09T00:58:41;3.58;;;1.42;;
40945;SDS011;55635;50.264;11.918;2022-09-09T01:01:36;2.42;;;1.63;;
40945;SDS011;55635;50.264;11.918;2022-09-09T01:04:21;4.93;;;1.88;;
40945;SDS011;55635;50.264;11.918;2022-09-09T01:07:17;1.52;;;1.38;;
40945;SDS011;55635;50.264;11.918;2022-09-09T01:10:00;3.83;;;1.25;;
40945;SDS011;55635;50.264;11.918;2022-09-09T01:13:21;2.53;;;1.63;;
40945;SDS011;55635;50.264;11.918;2022-09-09T01:16:06;5.38;;;2.10;;
40945;SDS011;55635;50.264;11.918;2022-09-09T01:18:52;2.67;;;2.05;;
40945;SDS011;55635;50.264;11.918;2022-09-09T01:22:09;4.95;;;1.85;;
40945;SDS011;55635;50.264;11.918;2022-09-09T01:28:19;3.30;;;1.95;;
40945;SDS011;55635;50.264;11.918;2022-09-09T01:31:07;2.00;;;1.42;;
40945;SDS011;55635;50.264;11.918;2022-09-09T01:33:58;2.08;;;1.90;;
40945;SDS011;55635;50.264;11.918;2022-09-09T01:39:34;2.58;;;1.80;;
40945;SDS011;55635;50.264;11.918;2022-09-09T01:42:21;1.92;;;1.42;;
40945;SDS011;55635;50.264;11.918;2022-09-09T01:45:02;1.85;;;1.45;;
40945;SDS011;55635;50.264;11.918;2022-09-09T01:47:45;3.17;;;1.60;;
40945;SDS011;55635;50.264;11.918;2022-09-09T01:50:34;2.47;;;1.73;;
40945;SDS011;55635;50.264;11.918;2022-09-09T01:53:15;4.93;;;2.10;;
40945;SDS011;55635;50.264;11.918;2022-09-09T01:56:15;2.80;;;1.60;;
40945;SDS011;55635;50.264;11.918;2022-09-09T02:02:26;3.20;;;1.52;;
40945;SDS011;55635;50.264;11.918;2022-09-09T02:11:30;3.07;;;1.50;;
40945;SDS011;55635;50.264;11.918;2022-09-09T02:14:49;2.03;;;1.83;;
40945;SDS011;55635;50.264;11.918;2022-09-09T02:17:49;2.05;;;1.88;;
40945;SDS011;55635;50.264;11.918;2022-09-09T02:20:32;1.65;;;1.42;;
40945;SDS011;55635;50.264;11.918;2022-09-09T02:23:14;7.03;;;1.85;;
40945;SDS011;55635;50.264;11.918;2022-09-09T02:25:57;3.47;;;1.50;;
40945;SDS011;55635;50.264;11.918;2022-09-09T02:28:40;1.77;;;1.58;;
40945;SDS011;55635;50.264;11.918;2022-09-09T02:31:23;1.60;;;1.50;;
40945;SDS011;55635;50.264;11.918;2022-09-09T02:34:08;1.95;;;1.85;;
40945;SDS011;55635;50.264;11.918;2022-09-09T02:36:52;3.35;;;2.10;;
40945;SDS011;55635;50.264;11.918;2022-09-09T02:39:36;2.65;;;1.60;;
40945;SDS011;55635;50.264;11.918;2022-09-09T02:42:19;3.72;;;1.70;;
40945;SDS011;55635;50.264;11.918;2022-09-09T02:45:00;2.42;;;1.67;;
40945;SDS011;55635;50.264;11.918;2022-09-09T02:47:53;3.22;;;1.52;;
40945;SDS011;55635;50.264;11.918;2022-09-09T02:53:52;2.95;;;1.38;;
40945;SDS011;55635;50.264;11.918;2022-09-09T02:56:51;3.67;;;2.00;;
40945;SDS011;55635;50.264;11.918;2022-09-09T02:59:39;2.42;;;1.48;;
40945;SDS011;55635;50.264;11.918;2022-09-09T03:02:22;1.65;;;1.40;;
40945;SDS011;55635;50.264;11.918;2022-09-09T03:05:10;2.45;;;1.90;;
40945;SDS011;55635;50.264;11.918;2022-09-09T03:07:51;3.90;;;1.95;;
40945;SDS011;55635;50.264;11.918;2022-09-09T03:10:34;3.65;;;1.75;;
40945;SDS011;55635;50.264;11.918;2022-09-09T03:13:15;5.38;;;1.52;;
40945;SDS011;55635;50.264;11.918;2022-09-09T03:15:56;2.47;;;1.60;;
40945;SDS011;55635;50.264;11.918;2022-09-09T03:18:37;3.08;;;1.88;;
40945;SDS011;55635;50.264;11.918;2022-09-09T03:21:19;2.47;;;1.67;;
40945;SDS011;55635;50.264;11.918;2022-09-09T03:24:00;1.50;;;1.20;;
40945;SDS011;55635;50.264;11.918;2022-09-09T03:26:43;2.17;;;1.73;;
40945;SDS011;55635;50.264;11.918;2022-09-09T03:29:27;1.50;;;1.33;;
40945;SDS011;55635;50.264;11.918;2022-09-09T03:32:11;1.48;;;1.00;;
40945;SDS011;55635;50.264;11.918;2022-09-09T03:34:53;4.10;;;1.48;;
40945;SDS011;55635;50.264;11.918;2022-09-09T03:37:35;5.78;;;1.50;;
40945;SDS011;55635;50.264;11.918;2022-09-09T03:40:16;6.75;;;1.60;;
40945;SDS011;55635;50.264;11.918;2022-09-09T03:43:00;1.90;;;1.45;;
40945;SDS011;55635;50.264;11.918;2022-09-09T03:45:41;2.35;;;1.70;;
40945;SDS011;55635;50.264;11.918;2022-09-09T03:48:30;4.27;;;1.47;;
40945;SDS011;55635;50.264;11.918;2022-09-09T03:51:12;3.58;;;1.40;;
40945;SDS011;55635;50.264;11.918;2022-09-09T03:53:54;2.42;;;1.20;;
40945;SDS011;55635;50.264;11.918;2022-09-09T03:56:37;2.83;;;1.60;;
40945;SDS011;55635;50.264;11.918;2022-09-09T03:59:17;1.40;;;1.25;;
40945;SDS011;55635;50.264;11.918;2022-09-09T04:01:59;3.97;;;1.48;;
40945;SDS011;55635;50.264;11.918;2022-09-09T04:04:40;5.90;;;1.27;;
40945;SDS011;55635;50.264;11.918;2022-09-09T04:07:20;3.47;;;1.13;;
40945;SDS011;55635;50.264;11.918;2022-09-09T04:10:04;2.38;;;1.42;;
40945;SDS011;55635;50.264;11.918;2022-09-09T04:12:46;3.95;;;1.30;;
40945;SDS011;55635;50.264;11.918;2022-09-09T04:15:27;4.50;;;1.63;;
40945;SDS011;55635;50.264;11.918;2022-09-09T04:18:09;1.65;;;1.15;;
40945;SDS011;55635;50.264;11.918;2022-09-09T04:20:52;3.78;;;1.40;;
40945;SDS011;55635;50.264;11.918;2022-09-09T04:23:36;1.67;;;1.33;;
40945;SDS011;55635;50.264;11.918;2022-09-09T04:26:18;1.88;;;1.48;;
40945;SDS011;55635;50.264;11.918;2022-09-09T04:29:00;2.13;;;1.40;;
40945;SDS011;55635;50.264;11.918;2022-09-09T04:31:42;4.15;;;1.42;;
40945;SDS011;55635;50.264;11.918;2022-09-09T04:34:23;3.20;;;1.58;;
40945;SDS011;55635;50.264;11.918;2022-09-09T04:37:08;3.58;;;1.55;;
40945;SDS011;55635;50.264;11.918;2022-09-09T04:39:52;3.45;;;1.60;;
40945;SDS011;55635;50.264;11.918;2022-09-09T04:42:36;2.08;;;1.30;;
40945;SDS011;55635;50.264;11.918;2022-09-09T04:45:17;8.93;;;1.95;;
40945;SDS011;55635;50.264;11.918;2022-09-09T04:47:59;4.22;;;1.52;;
40945;SDS011;55635;50.264;11.918;2022-09-09T04:50:40;3.88;;;1.30;;
40945;SDS011;55635;50.264;11.918;2022-09-09T04:53:25;2.33;;;1.50;;
40945;SDS011;55635;50.264;11.918;2022-09-09T04:56:08;2.00;;;1.60;;
40945;SDS011;55635;50.264;11.918;2022-09-09T04:58:55;4.20;;;1.80;;
40945;SDS011;55635;50.264;11.918;2022-09-09T05:01:40;4.55;;;1.50;;
40945;SDS011;55635;50.264;11.918;2022-09-09T05:04:21;2.97;;;1.63;;
40945;SDS011;55635;50.264;11.918;2022-09-09T05:07:02;1.98;;;1.85;;
40945;SDS011;55635;50.264;11.918;2022-09-09T05:09:43;2.55;;;1.60;;
40945;SDS011;55635;50.264;11.918;2022-09-09T05:12:25;2.42;;;2.10;;
40945;SDS011;55635;50.264;11.918;2022-09-09T05:15:07;7.38;;;1.85;;
40945;SDS011;55635;50.264;11.918;2022-09-09T05:17:49;2.30;;;1.58;;
40945;SDS011;55635;50.264;11.918;2022-09-09T05:20:32;4.85;;;1.90;;
40945;SDS011;55635;50.264;11.918;2022-09-09T05:23:15;3.33;;;1.98;;
40945;SDS011;55635;50.264;11.918;2022-09-09T05:25:57;4.90;;;1.90;;
40945;SDS011;55635;50.264;11.918;2022-09-09T05:28:39;4.78;;;2.00;;
40945;SDS011;55635;50.264;11.918;2022-09-09T05:31:20;2.95;;;1.85;;
40945;SDS011;55635;50.264;11.918;2022-09-09T05:34:05;6.22;;;2.15;;
40945;SDS011;55635;50.264;11.918;2022-09-09T05:36:46;2.65;;;1.98;;
40945;SDS011;55635;50.264;11.918;2022-09-09T05:39:28;3.00;;;1.95;;
40945;SDS011;55635;50.264;11.918;2022-09-09T05:42:10;3.58;;;1.98;;
40945;SDS011;55635;50.264;11.918;2022-09-09T05:44:52;5.93;;;1.70;;
40945;SDS011;55635;50.264;11.918;2022-09-09T05:47:35;2.45;;;1.88;;
40945;SDS011;55635;50.264;11.918;2022-09-09T05:50:19;5.15;;;1.20;;
40945;SDS011;55635;50.264;11.918;2022-09-09T05:53:00;4.30;;;1.67;;
40945;SDS011;55635;50.264;11.918;2022-09-09T05:55:41;4.57;;;1.65;;
40945;SDS011;55635;50.264;11.918;2022-09-09T05:58:22;3.45;;;1.50;;
40945;SDS011;55635;50.264;11.918;2022-09-09T06:01:06;2.60;;;1.75;;
40945;SDS011;55635;50.264;11.918;2022-09-09T06:03:55;5.15;;;1.67;;
40945;SDS011;55635;50.264;11.918;2022-09-09T06:06:37;4.43;;;1.35;;
40945;SDS011;55635;50.264;11.918;2022-09-09T06:09:29;5.10;;;1.50;;
40945;SDS011;55635;50.264;11.918;2022-09-09T06:12:11;2.38;;;1.70;;
40945;SDS011;55635;50.264;11.918;2022-09-09T06:14:52;1.48;;;1.38;;
40945;SDS011;55635;50.264;11.918;2022-09-09T06:17:33;2.40;;;1.40;;
40945;SDS011;55635;50.264;11.918;2022-09-09T06:20:14;7.30;;;1.92;;
40945;SDS011;55635;50.264;11.918;2022-09-09T06:22:56;3.97;;;1.85;;
40945;SDS011;55635;50.264;11.918;2022-09-09T06:25:37;4.85;;;1.52;;
40945;SDS011;55635;50.264;11.918;2022-09-09T06:28:22;1.88;;;1.55;;
40945;SDS011;55635;50.264;11.918;2022-09-09T06:31:04;3.20;;;1.83;;
40945;SDS011;55635;50.264;11.918;2022-09-09T06:33:49;2.47;;;1.48;;
40945;SDS011;55635;50.264;11.918;2022-09-09T06:36:34;2.50;;;1.45;;
40945;SDS011;55635;50.264;11.918;2022-09-09T06:39:17;3.35;;;1.42;;
40945;SDS011;55635;50.264;11.918;2022-09-09T06:41:59;5.00;;;1.42;;
40945;SDS011;55635;50.264;11.918;2022-09-09T06:45:03;4.13;;;1.80;;
40945;SDS011;55635;50.264;11.918;2022-09-09T06:47:50;3.25;;;1.85;;
40945;SDS011;55635;50.264;11.918;2022-09-09T06:50:32;2.03;;;1.40;;
40945;SDS011;55635;50.264;11.918;2022-09-09T06:53:16;10.75;;;1.80;;
40945;SDS011;55635;50.264;11.918;2022-09-09T06:56:03;2.95;;;1.42;;
40945;SDS011;55635;50.264;11.918;2022-09-09T06:59:10;1.65;;;1.50;;
40945;SDS011;55635;50.264;11.918;2022-09-09T07:01:52;2.13;;;1.50;;
40945;SDS011;55635;50.264;11.918;2022-09-09T07:04:34;4.03;;;1.83;;
40945;SDS011;55635;50.264;11.918;2022-09-09T07:07:17;2.72;;;1.30;;
40945;SDS011;55635;50.264;11.918;2022-09-09T07:09:58;5.47;;;1.60;;
40945;SDS011;55635;50.264;11.918;2022-09-09T07:12:49;2.47;;;1.25;;
40945;SDS011;55635;50.264;11.918;2022-09-09T07:15:33;3.90;;;1.25;;
40945;SDS011;55635;50.264;11.918;2022-09-09T07:18:14;2.08;;;0.93;;
40945;SDS011;55635;50.264;11.918;2022-09-09T07:20:55;2.53;;;1.13;;
40945;SDS011;55635;50.264;11.918;2022-09-09T07:23:37;4.43;;;1.98;;
40945;SDS011;55635;50.264;11.918;2022-09-09T07:26:21;4.85;;;1.17;;
40945;SDS011;55635;50.264;11.918;2022-09-09T07:29:07;1.77;;;0.85;;
40945;SDS011;55635;50.264;11.918;2022-09-09T07:31:48;2.97;;;0.95;;
40945;SDS011;55635;50.264;11.918;2022-09-09T07:34:34;3.00;;;1.17;;
40945;SDS011;55635;50.264;11.918;2022-09-09T07:37:15;2.70;;;1.20;;
40945;SDS011;55635;50.264;11.918;2022-09-09T07:39:58;5.40;;;1.20;;
40945;SDS011;55635;50.264;11.918;2022-09-09T07:42:39;4.97;;;0.90;;
40945;SDS011;55635;50.264;11.918;2022-09-09T07:45:20;2.00;;;0.70;;
40945;SDS011;55635;50.264;11.918;2022-09-09T07:48:01;4.00;;;1.38;;
40945;SDS011;55635;50.264;11.918;2022-09-09T07:50:44;3.08;;;0.90;;
40945;SDS011;55635;50.264;11.918;2022-09-09T07:53:25;4.13;;;1.00;;
40945;SDS011;55635;50.264;11.918;2022-09-09T07:56:08;3.67;;;1.20;;
40945;SDS011;55635;50.264;11.918;2022-09-09T07:58:54;2.35;;;0.88;;
40945;SDS011;55635;50.264;11.918;2022-09-09T08:01:38;3.75;;;1.27;;
40945;SDS011;55635;50.264;11.918;2022-09-09T08:04:26;4.55;;;1.17;;
40945;SDS011;55635;50.264;11.918;2022-09-09T08:07:08;2.08;;;0.80;;
40945;SDS011;55635;50.264;11.918;2022-09-09T08:09:57;3.30;;;0.83;;
40945;SDS011;55635;50.264;11.918;2022-09-09T08:12:43;4.78;;;0.70;;
40945;SDS011;55635;50.264;11.918;2022-09-09T08:15:24;3.28;;;0.95;;
40945;SDS011;55635;50.264;11.918;2022-09-09T08:18:05;3.95;;;1.23;;
40945;SDS011;55635;50.264;11.918;2022-09-09T08:20:46;3.88;;;0.82;;
40945;SDS011;55635;50.264;11.918;2022-09-09T08:23:28;1.52;;;1.00;;
40945;SDS011;55635;50.264;11.918;2022-09-09T08:26:16;2.85;;;1.20;;
40945;SDS011;55635;50.264;11.918;2022-09-09T08:29:10;1.92;;;0.70;;
40945;SDS011;55635;50.264;11.918;2022-09-09T08:31:55;2.83;;;0.90;;
40945;SDS011;55635;50.264;11.918;2022-09-09T08:34:38;4.53;;;0.88;;
40945;SDS011;55635;50.264;11.918;2022-09-09T08:37:23;4.00;;;1.10;;
40945;SDS011;55635;50.264;11.918;2022-09-09T08:40:04;0.90;;;0.70;;
40945;SDS011;55635;50.264;11.918;2022-09-09T08:42:50;3.50;;;0.75;;
40945;SDS011;55635;50.264;11.918;2022-09-09T08:45:45;6.32;;;1.10;;
40945;SDS011;55635;50.264;11.918;2022-09-09T08:49:18;3.10;;;0.80;;
40945;SDS011;55635;50.264;11.918;2022-09-09T08:56:15;2.83;;;1.25;;
40945;SDS011;55635;50.264;11.918;2022-09-09T08:59:12;2.38;;;1.20;;
40945;SDS011;55635;50.264;11.918;2022-09-09T09:02:02;3.10;;;1.00;;
40945;SDS011;55635;50.264;11.918;2022-09-09T09:05:18;5.22;;;0.90;;
40945;SDS011;55635;50.264;11.918;2022-09-09T09:08:50;4.32;;;0.90;;
40945;SDS011;55635;50.264;11.918;2022-09-09T09:12:07;2.00;;;0.75;;
40945;SDS011;55635;50.264;11.918;2022-09-09T09:14:56;2.10;;;0.75;;
40945;SDS011;55635;50.264;11.918;2022-09-09T09:17:40;3.25;;;0.90;;
40945;SDS011;55635;50.264;11.918;2022-09-09T09:20:26;2.95;;;0.90;;
40945;SDS011;55635;50.264;11.918;2022-09-09T09:23:57;4.13;;;0.65;;
40945;SDS011;55635;50.264;11.918;2022-09-09T09:26:43;1.83;;;0.90;;
40945;SDS011;55635;50.264;11.918;2022-09-09T09:29:24;1.30;;;0.60;;
40945;SDS011;55635;50.264;11.918;2022-09-09T09:32:07;1.77;;;0.70;;
40945;SDS011;55635;50.264;11.918;2022-09-09T09:34:58;1.58;;;0.73;;
40945;SDS011;55635;50.264;11.918;2022-09-09T09:37:44;4.30;;;0.85;;
40945;SDS011;55635;50.264;11.918;2022-09-09T09:40:26;2.22;;;0.80;;
40945;SDS011;55635;50.264;11.918;2022-09-09T09:43:16;1.27;;;0.75;;
40945;SDS011;55635;50.264;11.918;2022-09-09T09:46:18;2.15;;;0.63;;
40945;SDS011;55635;50.264;11.918;2022-09-09T09:49:10;2.13;;;0.63;;
40945;SDS011;55635;50.264;11.918;2022-09-09T09:51:53;2.85;;;0.85;;
40945;SDS011;55635;50.264;11.918;2022-09-09T09:54:43;1.88;;;1.00;;
40945;SDS011;55635;50.264;11.918;2022-09-09T09:57:25;2.85;;;0.90;;
40945;SDS011;55635;50.264;11.918;2022-09-09T10:00:18;1.98;;;0.98;;
40945;SDS011;55635;50.264;11.918;2022-09-09T10:03:21;1.60;;;0.70;;
40945;SDS011;55635;50.264;11.918;2022-09-09T10:06:08;5.50;;;1.13;;
40945;SDS011;55635;50.264;11.918;2022-09-09T10:08:49;3.03;;;0.90;;
40945;SDS011;55635;50.264;11.918;2022-09-09T10:11:41;2.28;;;0.93;;
40945;SDS011;55635;50.264;11.918;2022-09-09T10:14:37;1.98;;;0.98;;
40945;SDS011;55635;50.264;11.918;2022-09-09T10:27:20;2.85;;;1.17;;
40945;SDS011;55635;50.264;11.918;2022-09-09T10:33:15;3.45;;;0.80;;
40945;SDS011;55635;50.264;11.918;2022-09-09T10:36:23;2.72;;;1.00;;
40945;SDS011;55635;50.264;11.918;2022-09-09T10:39:31;2.40;;;1.10;;
40945;SDS011;55635;50.264;11.918;2022-09-09T10:42:18;3.42;;;1.00;;
40945;SDS011;55635;50.264;11.918;2022-09-09T10:45:18;2.42;;;0.73;;
40945;SDS011;55635;50.264;11.918;2022-09-09T10:48:24;5.22;;;0.95;;
40945;SDS011;55635;50.264;11.918;2022-09-09T11:00:43;3.67;;;0.90;;
40945;SDS011;55635;50.264;11.918;2022-09-09T11:03:29;2.25;;;0.85;;
40945;SDS011;55635;50.264;11.918;2022-09-09T11:06:15;2.45;;;1.00;;
40945;SDS011;55635;50.264;11.918;2022-09-09T11:09:01;3.17;;;0.90;;
40945;SDS011;55635;50.264;11.918;2022-09-09T11:11:54;2.17;;;0.70;;
40945;SDS011;55635;50.264;11.918;2022-09-09T11:14:44;3.67;;;0.70;;
40945;SDS011;55635;50.264;11.918;2022-09-09T11:17:50;2.83;;;1.00;;
40945;SDS011;55635;50.264;11.918;2022-09-09T11:20:36;2.95;;;0.90;;
40945;SDS011;55635;50.264;11.918;2022-09-09T11:23:27;4.10;;;1.13;;
40945;SDS011;55635;50.264;11.918;2022-09-09T11:26:27;1.80;;;0.73;;
40945;SDS011;55635;50.264;11.918;2022-09-09T11:32:49;5.85;;;1.10;;
40945;SDS011;55635;50.264;11.918;2022-09-09T11:42:25;2.80;;;0.70;;
40945;SDS011;55635;50.264;11.918;2022-09-09T11:45:15;2.05;;;0.50;;
40945;SDS011;55635;50.264;11.918;2022-09-09T11:48:01;2.90;;;0.70;;
40945;SDS011;55635;50.264;11.918;2022-09-09T11:51:10;5.20;;;0.90;;
40945;SDS011;55635;50.264;11.918;2022-09-09T11:57:25;1.55;;;0.80;;
40945;SDS011;55635;50.264;11.918;2022-09-09T12:06:31;2.60;;;0.70;;
40945;SDS011;55635;50.264;11.918;2022-09-09T12:12:28;2.30;;;0.85;;
40945;SDS011;55635;50.264;11.918;2022-09-09T12:15:20;3.72;;;0.80;;
40945;SDS011;55635;50.264;11.918;2022-09-09T12:18:14;3.05;;;0.85;;
40945;SDS011;55635;50.264;11.918;2022-09-09T12:24:09;3.50;;;0.60;;
40945;SDS011;55635;50.264;11.918;2022-09-09T12:26:56;2.83;;;0.90;;
40945;SDS011;55635;50.264;11.918;2022-09-09T12:29:48;2.07;;;0.80;;
40945;SDS011;55635;50.264;11.918;2022-09-09T12:32:58;2.03;;;0.55;;
40945;SDS011;55635;50.264;11.918;2022-09-09T12:35:55;1.35;;;0.50;;
40945;SDS011;55635;50.264;11.918;2022-09-09T12:38:38;1.73;;;0.40;;
40945;SDS011;55635;50.264;11.918;2022-09-09T12:41:22;1.83;;;0.52;;
40945;SDS011;55635;50.264;11.918;2022-09-09T12:44:08;1.45;;;0.50;;
40945;SDS011;55635;50.264;11.918;2022-09-09T12:46:50;2.17;;;0.60;;
40945;SDS011;55635;50.264;11.918;2022-09-09T12:52:31;3.13;;;0.45;;
40945;SDS011;55635;50.264;11.918;2022-09-09T12:55:20;1.42;;;0.65;;
40945;SDS011;55635;50.264;11.918;2022-09-09T12:58:05;3.25;;;0.70;;
40945;SDS011;55635;50.264;11.918;2022-09-09T13:00:51;2.63;;;0.50;;
40945;SDS011;55635;50.264;11.918;2022-09-09T13:03:41;1.13;;;0.57;;
40945;SDS011;55635;50.264;11.918;2022-09-09T13:06:31;4.47;;;0.60;;
40945;SDS011;55635;50.264;11.918;2022-09-09T13:09:13;1.50;;;0.60;;
40945;SDS011;55635;50.264;11.918;2022-09-09T13:11:54;1.58;;;0.40;;
40945;SDS011;55635;50.264;11.918;2022-09-09T13:14:38;0.38;;;0.30;;
40945;SDS011;55635;50.264;11.918;2022-09-09T13:17:23;0.52;;;0.47;;
40945;SDS011;55635;50.264;11.918;2022-09-09T13:20:15;1.40;;;0.50;;
40945;SDS011;55635;50.264;11.918;2022-09-09T13:22:58;1.08;;;0.30;;
40945;SDS011;55635;50.264;11.918;2022-09-09T13:25:39;1.10;;;0.30;;
40945;SDS011;55635;50.264;11.918;2022-09-09T13:28:20;1.30;;;0.40;;
40945;SDS011;55635;50.264;11.918;2022-09-09T13:31:05;2.75;;;0.52;;
40945;SDS011;55635;50.264;11.918;2022-09-09T13:34:27;1.17;;;0.35;;
40945;SDS011;55635;50.264;11.918;2022-09-09T13:37:17;2.05;;;0.50;;
40945;SDS011;55635;50.264;11.918;2022-09-09T13:40:20;0.50;;;0.30;;
40945;SDS011;55635;50.264;11.918;2022-09-09T13:43:03;2.55;;;0.47;;
40945;SDS011;55635;50.264;11.918;2022-09-09T13:45:52;1.60;;;0.50;;
40945;SDS011;55635;50.264;11.918;2022-09-09T13:48:37;2.47;;;0.38;;
40945;SDS011;55635;50.264;11.918;2022-09-09T13:51:27;1.52;;;0.70;;
40945;SDS011;55635;50.264;11.918;2022-09-09T13:54:15;0.52;;;0.52;;
40945;SDS011;55635;50.264;11.918;2022-09-09T13:56:59;1.23;;;0.60;;
40945;SDS011;55635;50.264;11.918;2022-09-09T13:59:41;1.92;;;0.32;;
40945;SDS011;55635;50.264;11.918;2022-09-09T14:02:22;1.13;;;0.43;;
40945;SDS011;55635;50.264;11.918;2022-09-09T14:05:04;3.90;;;0.50;;
40945;SDS011;55635;50.264;11.918;2022-09-09T14:07:49;6.80;;;0.90;;
40945;SDS011;55635;50.264;11.918;2022-09-09T14:10:30;11.30;;;2.22;;
40945;SDS011;55635;50.264;11.918;2022-09-09T14:13:11;2.75;;;0.70;;
40945;SDS011;55635;50.264;11.918;2022-09-09T14:15:52;4.93;;;0.85;;
40945;SDS011;55635;50.264;11.918;2022-09-09T14:18:33;3.42;;;1.55;;
40945;SDS011;55635;50.264;11.918;2022-09-09T14:21:15;3.25;;;1.50;;
40945;SDS011;55635;50.264;11.918;2022-09-09T14:23:56;5.55;;;1.20;;
40945;SDS011;55635;50.264;11.918;2022-09-09T14:26:38;4.20;;;0.60;;
40945;SDS011;55635;50.264;11.918;2022-09-09T14:29:19;1.80;;;0.93;;
40945;SDS011;55635;50.264;11.918;2022-09-09T14:32:00;1.90;;;0.80;;
40945;SDS011;55635;50.264;11.918;2022-09-09T14:34:41;3.40;;;0.73;;
40945;SDS011;55635;50.264;11.918;2022-09-09T14:37:21;3.50;;;0.70;;
40945;SDS011;55635;50.264;11.918;2022-09-09T14:40:02;3.63;;;0.90;;
40945;SDS011;55635;50.264;11.918;2022-09-09T14:42:44;1.92;;;0.57;;
40945;SDS011;55635;50.264;11.918;2022-09-09T14:45:25;6.70;;;0.90;;
40945;SDS011;55635;50.264;11.918;2022-09-09T14:48:06;2.63;;;1.23;;
40945;SDS011;55635;50.264;11.918;2022-09-09T14:50:47;7.43;;;4.63;;
40945;SDS011;55635;50.264;11.918;2022-09-09T14:53:29;3.25;;;2.40;;
40945;SDS011;55635;50.264;11.918;2022-09-09T14:56:11;3.75;;;1.30;;
40945;SDS011;55635;50.264;11.918;2022-09-09T14:58:56;3.55;;;0.88;;
40945;SDS011;55635;50.264;11.918;2022-09-09T15:01:40;5.38;;;1.02;;
40945;SDS011;55635;50.264;11.918;2022-09-09T15:04:21;5.68;;;0.70;;
40945;SDS011;55635;50.264;11.918;2022-09-09T15:07:02;4.07;;;0.88;;
40945;SDS011;55635;50.264;11.918;2022-09-09T15:09:43;2.03;;;1.05;;
40945;SDS011;55635;50.264;11.918;2022-09-09T15:12:24;3.35;;;0.75;;
40945;SDS011;55635;50.264;11.918;2022-09-09T15:15:08;2.03;;;0.77;;
40945;SDS011;55635;50.264;11.918;2022-09-09T15:17:50;4.03;;;1.05;;
40945;SDS011;55635;50.264;11.918;2022-09-09T15:20:31;3.92;;;0.95;;
40945;SDS011;55635;50.264;11.918;2022-09-09T15:23:15;1.75;;;0.85;;
40945;SDS011;55635;50.264;11.918;2022-09-09T15:25:56;2.47;;;0.85;;
40945;SDS011;55635;50.264;11.918;2022-09-09T15:28:38;3.22;;;1.05;;
40945;SDS011;55635;50.264;11.918;2022-09-09T15:31:20;2.17;;;0.80;;
40945;SDS011;55635;50.264;11.918;2022-09-09T15:34:04;2.58;;;0.68;;
40945;SDS011;55635;50.264;11.918;2022-09-09T15:36:47;2.95;;;0.60;;
40945;SDS011;55635;50.264;11.918;2022-09-09T15:39:28;2.63;;;0.63;;
40945;SDS011;55635;50.264;11.918;2022-09-09T15:42:09;4.05;;;1.30;;
40945;SDS011;55635;50.264;11.918;2022-09-09T15:44:50;1.60;;;0.60;;
40945;SDS011;55635;50.264;11.918;2022-09-09T15:47:31;1.55;;;0.88;;
40945;SDS011;55635;50.264;11.918;2022-09-09T15:50:15;1.55;;;0.90;;
40945;SDS011;55635;50.264;11.918;2022-09-09T15:52:56;4.05;;;0.95;;
40945;SDS011;55635;50.264;11.918;2022-09-09T15:55:37;0.73;;;0.73;;
40945;SDS011;55635;50.264;11.918;2022-09-09T15:58:18;3.92;;;0.70;;
40945;SDS011;55635;50.264;11.918;2022-09-09T16:03:47;0.65;;;0.63;;
40945;SDS011;55635;50.264;11.918;2022-09-09T16:06:30;1.95;;;0.88;;
40945;SDS011;55635;50.264;11.918;2022-09-09T16:09:11;1.50;;;0.73;;
40945;SDS011;55635;50.264;11.918;2022-09-09T16:11:52;3.38;;;0.93;;
40945;SDS011;55635;50.264;11.918;2022-09-09T16:14:36;4.72;;;0.63;;
40945;SDS011;55635;50.264;11.918;2022-09-09T16:17:16;1.60;;;0.88;;
40945;SDS011;55635;50.264;11.918;2022-09-09T16:19:59;0.77;;;0.65;;
40945;SDS011;55635;50.264;11.918;2022-09-09T16:22:40;2.42;;;0.73;;
40945;SDS011;55635;50.264;11.918;2022-09-09T16:25:22;2.13;;;0.60;;
40945;SDS011;55635;50.264;11.918;2022-09-09T16:28:03;3.13;;;0.80;;
40945;SDS011;55635;50.264;11.918;2022-09-09T16:30:44;3.03;;;0.65;;
40945;SDS011;55635;50.264;11.918;2022-09-09T16:33:24;2.75;;;0.68;;
40945;SDS011;55635;50.264;11.918;2022-09-09T16:36:07;1.40;;;0.60;;
40945;SDS011;55635;50.264;11.918;2022-09-09T16:38:54;1.08;;;0.70;;
40945;SDS011;55635;50.264;11.918;2022-09-09T16:41:37;5.72;;;0.88;;
40945;SDS011;55635;50.264;11.918;2022-09-09T16:44:21;2.30;;;0.70;;
40945;SDS011;55635;50.264;11.918;2022-09-09T16:47:02;1.38;;;0.60;;
40945;SDS011;55635;50.264;11.918;2022-09-09T16:49:46;1.08;;;0.40;;
40945;SDS011;55635;50.264;11.918;2022-09-09T16:52:31;1.00;;;0.40;;
40945;SDS011;55635;50.264;11.918;2022-09-09T16:55:12;1.45;;;0.50;;
40945;SDS011;55635;50.264;11.918;2022-09-09T16:57:54;0.75;;;0.30;;
40945;SDS011;55635;50.264;11.918;2022-09-09T17:00:34;0.80;;;0.60;;
40945;SDS011;55635;50.264;11.918;2022-09-09T17:03:15;0.63;;;0.60;;
40945;SDS011;55635;50.264;11.918;2022-09-09T17:05:57;0.90;;;0.38;;
40945;SDS011;55635;50.264;11.918;2022-09-09T17:08:42;1.42;;;0.60;;
40945;SDS011;55635;50.264;11.918;2022-09-09T17:11:23;3.05;;;0.90;;
40945;SDS011;55635;50.264;11.918;2022-09-09T17:14:05;1.00;;;0.55;;
40945;SDS011;55635;50.264;11.918;2022-09-09T17:16:49;2.25;;;1.23;;
40945;SDS011;55635;50.264;11.918;2022-09-09T17:19:31;2.55;;;0.80;;
40945;SDS011;55635;50.264;11.918;2022-09-09T17:22:12;2.00;;;0.60;;
40945;SDS011;55635;50.264;11.918;2022-09-09T17:24:53;0.80;;;0.70;;
40945;SDS011;55635;50.264;11.918;2022-09-09T17:27:34;2.78;;;1.13;;
40945;SDS011;55635;50.264;11.918;2022-09-09T17:30:15;1.10;;;0.75;;
40945;SDS011;55635;50.264;11.918;2022-09-09T17:32:56;0.90;;;0.80;;
40945;SDS011;55635;50.264;11.918;2022-09-09T17:35:43;4.15;;;0.90;;
40945;SDS011;55635;50.264;11.918;2022-09-09T17:38:25;2.03;;;0.88;;
40945;SDS011;55635;50.264;11.918;2022-09-09T17:43:51;1.80;;;1.10;;
40945;SDS011;55635;50.264;11.918;2022-09-09T17:46:34;3.45;;;0.98;;
40945;SDS011;55635;50.264;11.918;2022-09-09T17:49:17;3.40;;;1.00;;
40945;SDS011;55635;50.264;11.918;2022-09-09T17:51:58;2.58;;;1.35;;
40945;SDS011;55635;50.264;11.918;2022-09-09T17:54:39;3.72;;;1.13;;
40945;SDS011;55635;50.264;11.918;2022-09-09T17:57:21;1.42;;;1.10;;
40945;SDS011;55635;50.264;11.918;2022-09-09T18:00:04;1.92;;;1.25;;
40945;SDS011;55635;50.264;11.918;2022-09-09T18:02:52;3.50;;;1.35;;
40945;SDS011;55635;50.264;11.918;2022-09-09T18:05:34;3.97;;;1.23;;
40945;SDS011;55635;50.264;11.918;2022-09-09T18:08:15;2.60;;;1.13;;